createdAt,value
2023-05-12T00:05:04.593Z,10.82
2023-05-12T00:18:34.563Z,10.61
2023-05-12T00:21:02.736Z,10.56
2023-05-12T00:23:30.920Z,10.54
2023-05-12T00:25:59.305Z,10.53
2023-05-12T00:28:27.453Z,10.51
2023-05-12T00:30:56.015Z,10.50
2023-05-12T00:33:24.200Z,10.48
2023-05-12T00:35:52.350Z,10.45
2023-05-12T00:38:20.636Z,10.43
2023-05-12T00:40:48.789Z,10.43
2023-05-12T00:43:16.972Z,10.42
2023-05-12T00:45:45.535Z,10.39
2023-05-12T00:48:14.017Z,10.35
2023-05-12T00:50:42.687Z,10.31
2023-05-12T00:53:12.394Z,10.27
2023-05-12T00:55:41.624Z,10.24
2023-05-12T00:58:10.006Z,10.22
2023-05-12T01:00:38.232Z,10.21
2023-05-12T01:03:06.923Z,10.20
2023-05-12T01:06:01.759Z,10.18
2023-05-12T01:08:31.356Z,10.16
2023-05-12T01:10:59.550Z,10.11
2023-05-12T01:13:29.062Z,10.07
2023-05-12T01:16:00.640Z,10.03
2023-05-12T01:18:30.875Z,10.00
2023-05-12T01:21:00.769Z,9.99
2023-05-12T01:23:36.488Z,9.99
2023-05-12T01:26:11.788Z,10.00
2023-05-12T01:28:41.318Z,9.98
2023-05-12T01:31:10.077Z,9.98
2023-05-12T01:33:40.151Z,9.99
2023-05-12T01:36:08.634Z,9.99
2023-05-12T01:38:37.045Z,9.99
2023-05-12T01:41:05.389Z,10.00
2023-05-12T01:43:33.570Z,9.99
2023-05-12T01:46:02.162Z,9.98
2023-05-12T01:48:31.193Z,9.97
2023-05-12T01:51:01.485Z,9.97
2023-05-12T01:53:29.776Z,9.97
2023-05-12T01:55:57.915Z,9.96
2023-05-12T01:58:27.203Z,9.93
2023-05-12T02:00:55.440Z,9.92
2023-05-12T02:03:23.873Z,9.92
2023-05-12T02:05:52.184Z,9.89
2023-05-12T02:08:20.692Z,9.88
2023-05-12T02:10:48.978Z,9.87
2023-05-12T02:13:17.102Z,9.86
2023-05-12T02:15:45.768Z,9.86
2023-05-12T02:18:14.204Z,9.86
2023-05-12T02:20:43.728Z,9.85
2023-05-12T02:23:11.850Z,9.84
2023-05-12T02:25:40.057Z,9.85
2023-05-12T02:28:11.058Z,9.87
2023-05-12T02:30:45.627Z,9.88
2023-05-12T02:33:13.886Z,9.88
2023-05-12T02:35:42.175Z,9.88
2023-05-12T02:38:11.496Z,9.85
2023-05-12T02:40:40.148Z,9.84
2023-05-12T02:43:10.486Z,9.85
2023-05-12T02:45:39.285Z,9.84
2023-05-12T02:48:07.591Z,9.85
2023-05-12T02:50:35.912Z,9.85
2023-05-12T02:53:04.284Z,9.84
2023-05-12T02:55:32.525Z,9.84
2023-05-12T02:58:00.890Z,9.85
2023-05-12T03:00:29.132Z,9.85
2023-05-12T03:02:57.456Z,9.86
2023-05-12T03:05:26.074Z,9.88
2023-05-12T03:07:54.289Z,9.90
2023-05-12T03:10:22.967Z,9.91
2023-05-12T03:12:51.614Z,9.90
2023-05-12T03:15:19.845Z,9.89
2023-05-12T03:17:47.958Z,9.90
2023-05-12T03:20:16.741Z,9.92
2023-05-12T03:22:44.937Z,9.94
2023-05-12T03:25:13.131Z,9.97
2023-05-12T03:27:41.764Z,10.00
2023-05-12T03:30:11.538Z,10.02
2023-05-12T03:32:39.920Z,10.07
2023-05-12T03:35:10.063Z,10.09
2023-05-12T03:37:38.262Z,10.11
2023-05-12T03:40:08.620Z,10.12
2023-05-12T03:42:36.775Z,10.15
2023-05-12T03:45:07.049Z,10.17
2023-05-12T03:47:36.240Z,10.20
2023-05-12T03:50:04.947Z,10.24
2023-05-12T03:52:33.180Z,10.28
2023-05-12T03:55:02.515Z,10.33
2023-05-12T03:57:31.733Z,10.37
2023-05-12T04:00:00.706Z,10.41
2023-05-12T04:02:29.050Z,10.44
2023-05-12T04:04:57.360Z,10.48
2023-05-12T04:07:25.643Z,10.53
2023-05-12T04:09:53.799Z,10.55
2023-05-12T04:12:22.273Z,10.59
2023-05-12T04:14:51.117Z,10.62
2023-05-12T04:17:19.469Z,10.64
2023-05-12T04:19:47.726Z,10.66
2023-05-12T04:22:15.983Z,10.68
2023-05-12T04:24:44.208Z,10.68
2023-05-12T04:27:12.551Z,10.70
2023-05-12T04:29:41.207Z,10.72
2023-05-12T04:32:09.532Z,10.73
2023-05-12T04:34:37.956Z,10.75
2023-05-12T04:37:06.380Z,10.76
2023-05-12T04:39:34.537Z,10.76
2023-05-12T04:42:04.394Z,10.79
2023-05-12T04:44:34.603Z,10.81
2023-05-12T04:47:02.955Z,10.81
2023-05-12T04:49:31.885Z,10.82
2023-05-12T04:52:00.039Z,10.83
2023-05-12T04:54:28.227Z,10.85
2023-05-12T04:56:57.188Z,10.87
2023-05-12T04:59:25.574Z,10.89
2023-05-12T05:01:55.366Z,10.90
2023-05-12T05:04:23.665Z,10.94
2023-05-12T05:06:51.930Z,11.00
2023-05-12T05:09:20.731Z,11.08
2023-05-12T05:11:48.927Z,11.15
2023-05-12T05:14:17.107Z,11.23
2023-05-12T05:16:46.276Z,11.29
2023-05-12T05:19:22.726Z,11.33
2023-05-12T05:21:58.410Z,11.37
2023-05-12T05:24:26.778Z,11.41
2023-05-12T05:26:55.502Z,11.44
2023-05-12T05:29:23.669Z,11.43
2023-05-12T05:31:52.854Z,11.42
2023-05-12T05:34:21.132Z,11.45
2023-05-12T05:36:50.645Z,11.47
2023-05-12T05:39:18.898Z,11.49
2023-05-12T05:41:47.808Z,11.50
2023-05-12T05:44:16.065Z,11.53
2023-05-12T05:46:44.334Z,11.53
2023-05-12T05:49:13.809Z,11.53
2023-05-12T05:51:42.771Z,11.54
2023-05-12T05:54:12.163Z,11.58
2023-05-12T05:56:40.396Z,11.62
2023-05-12T05:59:08.505Z,11.66
2023-05-12T06:01:36.859Z,11.70
2023-05-12T06:04:05.613Z,11.75
2023-05-12T06:06:33.956Z,11.76
2023-05-12T06:09:02.432Z,11.76
2023-05-12T06:11:30.778Z,11.79
2023-05-12T06:13:58.913Z,11.86
2023-05-12T06:16:27.909Z,11.90
2023-05-12T06:18:56.248Z,11.94
2023-05-12T06:21:24.482Z,11.95
2023-05-12T06:23:54.826Z,11.96
2023-05-12T06:26:23.056Z,11.98
2023-05-12T06:28:51.257Z,12.04
2023-05-12T06:31:19.548Z,12.09
2023-05-12T06:33:48.673Z,12.11
2023-05-12T06:36:17.003Z,12.19
2023-05-12T06:38:45.169Z,12.27
2023-05-12T06:41:14.542Z,12.38
2023-05-12T06:43:43.641Z,12.49
2023-05-12T06:46:12.394Z,12.60
2023-05-12T06:48:42.364Z,12.74
2023-05-12T06:51:10.575Z,12.87
2023-05-12T06:53:40.453Z,12.98
2023-05-12T06:56:09.466Z,13.09
2023-05-12T06:58:37.701Z,13.19
2023-05-12T07:01:06.045Z,13.29
2023-05-12T07:03:34.688Z,13.40
2023-05-12T07:06:04.567Z,13.48
2023-05-12T07:08:32.796Z,13.52
2023-05-12T07:11:01.743Z,13.54
2023-05-12T07:13:30.045Z,13.52
2023-05-12T07:15:58.331Z,13.54
2023-05-12T07:18:26.561Z,13.58
2023-05-12T07:20:55.682Z,13.62
2023-05-12T07:23:23.916Z,13.63
2023-05-12T07:25:52.216Z,13.63
2023-05-12T07:28:20.468Z,13.61
2023-05-12T07:30:48.730Z,13.64
2023-05-12T07:33:17.085Z,13.68
2023-05-12T07:35:46.576Z,13.74
2023-05-12T07:38:15.378Z,13.82
2023-05-12T07:40:44.722Z,13.88
2023-05-12T07:43:12.951Z,13.94
2023-05-12T07:45:41.250Z,14.04
2023-05-12T07:48:11.414Z,14.11
2023-05-12T07:50:40.442Z,14.20
2023-05-12T07:53:08.643Z,14.27
2023-05-12T07:55:37.013Z,14.35
2023-05-12T07:58:05.296Z,14.43
2023-05-12T08:00:33.492Z,14.53
2023-05-12T08:03:01.900Z,14.67
2023-05-12T08:05:30.267Z,14.75
2023-05-12T08:07:58.386Z,14.81
2023-05-12T08:10:29.735Z,14.83
2023-05-12T08:12:57.976Z,14.87
2023-05-12T08:15:26.233Z,14.92
2023-05-12T08:17:54.614Z,15.01
2023-05-12T08:20:22.816Z,15.07
2023-05-12T08:22:51.030Z,15.15
2023-05-12T08:25:19.471Z,15.21
2023-05-12T08:27:47.745Z,15.23
2023-05-12T08:30:16.285Z,15.23
2023-05-12T08:32:44.552Z,15.21
2023-05-12T08:35:12.969Z,15.21
2023-05-12T08:37:41.207Z,15.23
2023-05-12T08:40:21.880Z,15.29
2023-05-12T08:43:25.053Z,15.33
2023-05-12T08:45:57.632Z,15.35
2023-05-12T08:48:28.122Z,15.37
2023-05-12T08:50:57.261Z,15.42
2023-05-12T08:53:28.047Z,15.46
2023-05-12T08:58:49.799Z,15.43
2023-05-12T09:01:18.670Z,15.44
2023-05-12T09:03:47.003Z,15.43
2023-05-12T09:06:15.768Z,15.41
2023-05-12T09:08:44.215Z,15.41
2023-05-12T09:11:15.210Z,15.39
2023-05-12T09:14:02.774Z,15.34
2023-05-12T09:16:43.425Z,15.37
2023-05-12T09:19:11.859Z,15.37
2023-05-12T09:21:41.937Z,15.33
2023-05-12T09:24:10.217Z,15.28
2023-05-12T09:26:46.301Z,15.25
2023-05-12T09:29:27.842Z,15.19
2023-05-12T09:32:02.355Z,15.15
2023-05-12T09:34:37.067Z,15.14
2023-05-12T09:37:07.778Z,15.14
2023-05-12T09:39:36.682Z,15.14
2023-05-12T09:42:13.022Z,15.10
2023-05-12T09:44:42.089Z,15.06
2023-05-12T09:47:10.463Z,15.00
2023-05-12T09:49:38.866Z,14.94
2023-05-12T09:52:07.139Z,14.91
2023-05-12T09:54:36.459Z,14.87
2023-05-12T09:57:05.260Z,14.81
2023-05-12T09:59:36.494Z,14.73
2023-05-12T10:02:08.941Z,14.68
2023-05-12T10:04:52.779Z,14.67
2023-05-12T10:07:26.110Z,14.69
2023-05-12T10:09:58.559Z,14.70
2023-05-12T10:12:27.047Z,14.70
2023-05-12T10:14:56.041Z,14.70
2023-05-12T10:17:26.801Z,14.71
2023-05-12T10:19:55.343Z,14.77
2023-05-12T10:22:24.830Z,14.80
2023-05-12T10:24:54.702Z,14.86
2023-05-12T10:27:23.718Z,14.90
2023-05-12T10:29:53.635Z,14.91
2023-05-12T10:32:22.051Z,14.92
2023-05-12T10:34:50.906Z,14.89
2023-05-12T10:37:19.112Z,14.92
2023-05-12T10:39:50.271Z,14.93
2023-05-12T10:42:25.632Z,14.94
2023-05-12T10:44:56.288Z,14.92
2023-05-12T10:47:38.004Z,14.87
2023-05-12T10:50:07.903Z,14.82
2023-05-12T10:52:54.026Z,14.83
2023-05-12T10:55:42.432Z,14.83
2023-05-12T10:58:13.429Z,14.83
2023-05-12T11:00:50.630Z,14.82
2023-05-12T11:03:25.837Z,14.80
2023-05-12T11:06:06.103Z,14.81
2023-05-12T11:08:37.819Z,14.81
2023-05-12T11:11:06.479Z,14.76
2023-05-12T11:13:35.766Z,14.77
2023-05-12T11:16:13.719Z,14.77
2023-05-12T11:18:42.006Z,14.75
2023-05-12T11:21:14.478Z,14.68
2023-05-12T11:23:42.658Z,14.66
2023-05-12T11:26:18.550Z,14.65
2023-05-12T11:28:47.190Z,14.65
2023-05-12T11:31:22.593Z,14.67
2023-05-12T11:34:11.283Z,14.72
2023-05-12T11:36:43.369Z,14.72
2023-05-12T11:39:17.518Z,14.68
2023-05-12T11:41:46.001Z,14.68
2023-05-12T11:44:23.001Z,14.65
2023-05-12T11:46:55.982Z,14.63
2023-05-12T11:49:24.288Z,14.56
2023-05-12T11:51:57.555Z,14.54
2023-05-12T11:54:29.158Z,14.55
2023-05-12T11:56:58.389Z,14.56
2023-05-12T11:59:35.133Z,14.57
2023-05-12T12:02:04.740Z,14.56
2023-05-12T12:04:40.375Z,14.54
2023-05-12T12:07:09.701Z,14.58
2023-05-12T12:09:41.050Z,14.62
2023-05-12T12:12:11.552Z,14.63
2023-05-12T12:14:41.751Z,14.66
2023-05-12T12:17:10.257Z,14.66
2023-05-12T12:19:38.466Z,14.65
2023-05-12T12:22:06.805Z,14.61
2023-05-12T12:24:35.786Z,14.56
2023-05-12T12:27:05.439Z,14.46
2023-05-12T12:29:34.303Z,14.41
2023-05-12T12:32:02.482Z,14.35
2023-05-12T12:34:30.844Z,14.34
2023-05-12T12:36:59.038Z,14.39
2023-05-12T12:39:27.222Z,14.41
2023-05-12T12:41:55.466Z,14.44
2023-05-12T12:44:23.652Z,14.47
2023-05-12T12:46:51.890Z,14.44
2023-05-12T12:49:20.087Z,14.43
2023-05-12T12:51:48.302Z,14.40
2023-05-12T12:54:16.538Z,14.39
2023-05-12T12:56:44.689Z,14.38
2023-05-12T12:59:13.312Z,14.41
2023-05-12T13:01:41.518Z,14.47
2023-05-12T13:04:09.784Z,14.51
2023-05-12T13:06:38.058Z,14.50
2023-05-12T13:09:06.226Z,14.49
2023-05-12T13:11:34.830Z,14.52
2023-05-12T13:14:04.399Z,14.50
2023-05-12T13:16:32.892Z,14.47
2023-05-12T13:19:01.233Z,14.43
2023-05-12T13:21:29.477Z,14.38
2023-05-12T13:23:57.614Z,14.35
2023-05-12T13:26:25.887Z,14.28
2023-05-12T13:28:54.172Z,14.17
2023-05-12T13:31:22.797Z,14.12
2023-05-12T13:33:51.138Z,14.11
2023-05-12T13:36:19.457Z,14.10
2023-05-12T13:38:47.681Z,14.05
2023-05-12T13:41:15.921Z,14.01
2023-05-12T13:43:44.089Z,13.93
2023-05-12T13:46:12.276Z,13.90
2023-05-12T13:48:40.804Z,13.90
2023-05-12T13:51:09.079Z,13.87
2023-05-12T13:53:39.115Z,13.85
2023-05-12T13:56:18.445Z,13.85
2023-05-12T13:58:47.847Z,13.89
2023-05-12T14:01:16.340Z,13.85
2023-05-12T14:03:44.523Z,13.83
2023-05-12T14:06:12.860Z,13.83
2023-05-12T14:08:41.807Z,13.82
2023-05-12T14:11:10.290Z,13.85
2023-05-12T14:13:38.471Z,13.88
2023-05-12T14:16:09.906Z,13.89
2023-05-12T14:18:38.093Z,13.90
2023-05-12T14:21:07.289Z,13.89
2023-05-12T14:23:36.562Z,13.87
2023-05-12T14:26:05.246Z,13.84
2023-05-12T14:28:33.462Z,13.80
2023-05-12T14:31:05.303Z,13.77
2023-05-12T14:33:33.458Z,13.74
2023-05-12T14:36:07.282Z,13.69
2023-05-12T14:38:36.014Z,13.65
2023-05-12T14:41:04.268Z,13.67
2023-05-12T14:43:32.429Z,13.67
2023-05-12T14:46:02.176Z,13.62
2023-05-12T14:48:30.654Z,13.60
2023-05-12T14:50:58.869Z,13.62
2023-05-12T14:53:27.126Z,13.59
2023-05-12T14:55:55.379Z,13.54
2023-05-12T14:58:24.407Z,13.50
2023-05-12T15:00:53.297Z,13.46
2023-05-12T15:03:21.921Z,13.44
2023-05-12T15:08:21.712Z,13.46
2023-05-12T15:10:50.466Z,13.45
2023-05-12T15:13:20.422Z,13.40
2023-05-12T15:15:49.358Z,13.35
2023-05-12T15:18:18.005Z,13.28
2023-05-12T15:20:46.346Z,13.25
2023-05-12T15:23:14.592Z,13.23
2023-05-12T15:25:42.749Z,13.25
2023-05-12T15:28:10.889Z,13.25
2023-05-12T15:30:39.076Z,13.21
2023-05-12T15:33:07.347Z,13.17
2023-05-12T15:35:35.756Z,13.17
2023-05-12T15:38:04.125Z,13.15
2023-05-12T15:40:32.310Z,13.14
2023-05-12T15:43:00.472Z,13.13
2023-05-12T15:45:28.583Z,13.09
2023-05-12T15:47:57.137Z,13.06
2023-05-12T15:50:25.347Z,13.02
2023-05-12T15:52:53.434Z,12.99
2023-05-12T15:55:22.104Z,12.97
2023-05-12T15:57:51.000Z,12.94
2023-05-12T16:00:20.562Z,12.95
2023-05-12T16:02:49.947Z,12.97
2023-05-12T16:05:18.729Z,12.92
2023-05-12T16:07:47.995Z,12.86
2023-05-12T16:10:16.143Z,12.83
2023-05-12T16:12:46.195Z,12.78
2023-05-12T16:15:14.697Z,12.70
2023-05-12T16:17:42.982Z,12.68
2023-05-12T16:20:12.711Z,12.67
2023-05-12T16:22:40.923Z,12.65
2023-05-12T16:25:09.387Z,12.58
2023-05-12T16:27:38.861Z,12.51
2023-05-12T16:30:07.906Z,12.49
2023-05-12T16:32:36.098Z,12.48
2023-05-12T16:35:04.695Z,12.44
2023-05-12T16:37:32.905Z,12.35
2023-05-12T16:40:01.292Z,12.31
2023-05-12T16:42:29.587Z,12.29
2023-05-12T16:44:57.949Z,12.24
2023-05-12T16:47:26.209Z,12.20
2023-05-12T16:49:54.493Z,12.19
2023-05-12T16:52:22.702Z,12.15
2023-05-12T16:54:50.915Z,12.09
2023-05-12T16:57:19.248Z,12.04
2023-05-12T16:59:48.506Z,12.02
2023-05-12T17:02:17.314Z,12.03
2023-05-12T17:04:46.537Z,12.03
2023-05-12T17:07:14.797Z,12.01
2023-05-12T17:09:42.942Z,11.91
2023-05-12T17:12:11.106Z,11.88
2023-05-12T17:14:39.301Z,11.87
2023-05-12T17:17:07.851Z,11.85
2023-05-12T17:19:41.740Z,11.82
2023-05-12T17:22:10.254Z,11.79
2023-05-12T17:24:38.451Z,11.75
2023-05-12T17:27:06.628Z,11.67
2023-05-12T17:29:34.864Z,11.62
2023-05-12T17:32:03.058Z,11.59
2023-05-12T17:34:31.279Z,11.58
2023-05-12T17:36:59.452Z,11.51
2023-05-12T17:39:27.593Z,11.45
2023-05-12T17:41:55.731Z,11.44
2023-05-12T17:44:23.891Z,11.43
2023-05-12T17:46:52.099Z,11.41
2023-05-12T17:49:20.293Z,11.39
2023-05-12T17:51:49.411Z,11.37
2023-05-12T17:54:17.512Z,11.34
2023-05-12T17:56:46.042Z,11.29
2023-05-12T17:59:14.527Z,11.29
2023-05-12T18:01:42.764Z,11.28
2023-05-12T18:04:10.974Z,11.26
2023-05-12T18:06:39.131Z,11.21
2023-05-12T18:09:08.649Z,11.19
2023-05-12T18:11:37.133Z,11.17
2023-05-12T18:14:05.972Z,11.15
2023-05-12T18:16:34.351Z,11.17
2023-05-12T18:19:04.004Z,11.17
2023-05-12T18:21:32.773Z,11.20
2023-05-12T18:24:01.138Z,11.21
2023-05-12T18:26:29.702Z,11.21
2023-05-12T18:28:58.082Z,11.21
2023-05-12T18:31:26.933Z,11.19
2023-05-12T18:33:55.296Z,11.18
2023-05-12T18:36:23.396Z,11.17
2023-05-12T18:38:51.732Z,11.17
2023-05-12T18:41:20.020Z,11.16
2023-05-12T18:43:48.195Z,11.13
2023-05-12T18:46:16.383Z,11.07
2023-05-12T18:48:44.580Z,11.03
2023-05-12T18:51:12.798Z,11.00
2023-05-12T18:53:40.957Z,10.97
2023-05-12T18:56:09.148Z,10.98
2023-05-12T18:58:38.833Z,11.01
2023-05-12T19:01:07.146Z,11.04
2023-05-12T19:03:35.380Z,11.05
2023-05-12T19:06:03.755Z,11.03
2023-05-12T19:08:31.903Z,11.01
2023-05-12T19:11:00.330Z,11.00
2023-05-12T19:13:28.533Z,10.97
2023-05-12T19:15:56.753Z,10.95
2023-05-12T19:18:24.979Z,10.95
2023-05-12T19:20:53.331Z,10.97
2023-05-12T19:23:21.859Z,10.96
2023-05-12T19:25:50.680Z,10.95
2023-05-12T19:28:18.865Z,10.95
2023-05-12T19:30:47.083Z,10.92
2023-05-12T19:33:17.241Z,10.91
2023-05-12T19:35:45.802Z,10.91
2023-05-12T19:38:14.337Z,10.91
2023-05-12T19:40:42.577Z,10.90
2023-05-12T19:43:10.809Z,10.89
2023-05-12T19:45:42.258Z,10.90
2023-05-12T19:48:11.039Z,10.90
2023-05-12T19:50:39.461Z,10.90
2023-05-12T19:53:07.677Z,10.90
2023-05-12T19:55:36.621Z,10.90
2023-05-12T19:58:04.902Z,10.89
2023-05-12T20:00:33.346Z,10.90
2023-05-12T20:03:05.658Z,10.88
2023-05-12T20:05:37.799Z,10.86
2023-05-12T20:08:06.417Z,10.84
2023-05-12T20:10:34.679Z,10.85
2023-05-12T20:13:03.841Z,10.85
2023-05-12T20:15:32.646Z,10.83
2023-05-12T20:18:01.192Z,10.81
2023-05-12T20:20:29.679Z,10.81
2023-05-12T20:22:57.886Z,10.81
2023-05-12T20:25:27.046Z,10.78
2023-05-12T20:27:58.158Z,10.76
2023-05-12T20:30:26.813Z,10.75
2023-05-12T20:32:55.164Z,10.76
2023-05-12T20:35:23.880Z,10.76
2023-05-12T20:37:52.357Z,10.76
2023-05-12T20:40:20.863Z,10.76
2023-05-12T20:42:49.445Z,10.75
2023-05-12T20:45:20.571Z,10.73
2023-05-12T20:47:49.480Z,10.71
2023-05-12T20:50:17.917Z,10.68
2023-05-12T20:52:47.420Z,10.68
2023-05-12T20:55:16.282Z,10.66
2023-05-12T20:57:44.959Z,10.64
2023-05-12T21:00:14.003Z,10.60
2023-05-12T21:02:42.311Z,10.58
2023-05-12T21:05:10.566Z,10.58
2023-05-12T21:07:39.726Z,10.57
2023-05-12T21:10:08.573Z,10.56
2023-05-12T21:12:37.598Z,10.53
2023-05-12T21:15:10.155Z,10.49
2023-05-12T21:17:40.935Z,10.49
2023-05-12T21:20:11.830Z,10.50
2023-05-12T21:22:40.770Z,10.49
2023-05-12T21:25:10.141Z,10.46
2023-05-12T21:27:43.029Z,10.46
2023-05-12T21:30:11.694Z,10.46
2023-05-12T21:32:39.900Z,10.46
2023-05-12T21:35:08.274Z,10.46
2023-05-12T21:37:36.813Z,10.45
2023-05-12T21:40:06.161Z,10.45
2023-05-12T21:42:34.620Z,10.44
2023-05-12T21:45:02.968Z,10.43
2023-05-12T21:47:31.154Z,10.42
2023-05-12T21:49:59.401Z,10.40
2023-05-12T21:52:28.031Z,10.39
2023-05-12T21:54:56.199Z,10.40
2023-05-12T21:57:24.375Z,10.40
2023-05-12T21:59:52.695Z,10.38
2023-05-12T22:02:20.849Z,10.37
2023-05-12T22:04:49.199Z,10.38
2023-05-12T22:07:17.369Z,10.39
2023-05-12T22:09:45.601Z,10.39
2023-05-12T22:12:16.984Z,10.37
2023-05-12T22:14:45.380Z,10.36
2023-05-12T22:17:13.590Z,10.35
2023-05-12T22:19:41.901Z,10.35
2023-05-12T22:22:10.335Z,10.36
2023-05-12T22:24:38.530Z,10.36
2023-05-12T22:27:06.692Z,10.35
2023-05-12T22:29:34.818Z,10.33
2023-05-12T22:32:02.927Z,10.31
2023-05-12T22:34:31.067Z,10.30
2023-05-12T22:36:59.174Z,10.30
2023-05-12T22:39:27.291Z,10.29
2023-05-12T22:41:55.429Z,10.27
2023-05-12T22:44:23.639Z,10.24
2023-05-12T22:46:51.840Z,10.21
2023-05-12T22:49:19.957Z,10.18
2023-05-12T22:51:48.125Z,10.17
2023-05-12T22:54:16.466Z,10.22
2023-05-12T22:56:44.810Z,10.27
2023-05-12T22:59:13.067Z,10.32
2023-05-12T23:01:41.244Z,10.36
2023-05-12T23:04:09.442Z,10.39
2023-05-12T23:06:37.621Z,10.40
2023-05-12T23:09:05.775Z,10.42
2023-05-12T23:11:33.914Z,10.46
2023-05-12T23:14:02.061Z,10.49
2023-05-12T23:16:30.406Z,10.51
2023-05-12T23:18:58.709Z,10.52
2023-05-12T23:21:27.001Z,10.55
2023-05-12T23:23:55.229Z,10.59
2023-05-12T23:26:23.478Z,10.58
2023-05-12T23:28:51.599Z,10.58
2023-05-12T23:31:19.788Z,10.59
2023-05-12T23:33:48.029Z,10.62
2023-05-12T23:36:16.216Z,10.64
2023-05-12T23:38:44.544Z,10.65
2023-05-12T23:41:12.747Z,10.68
2023-05-12T23:43:40.936Z,10.68
2023-05-12T23:46:10.628Z,10.68
2023-05-12T23:48:38.808Z,10.66
2023-05-12T23:51:06.939Z,10.66
2023-05-12T23:53:35.133Z,10.66
2023-05-12T23:56:03.318Z,10.62
2023-05-12T23:58:31.474Z,10.59
